Terminal Aerodrome Forecast
Issued by NWS

Home | Current Version | Previous Version | Graphics & Text | Print | Product List | Glossary On
Versions: 1 2 3 4 5 6 7 8 9 10 11 12 13 14 15 16 17 18 19 20 21 22 23 24 25 26 27 28 29 30 31 32 33 34 35 36 37 38 39 40 41 42 43 44 45 46 47 48 49 50
000
FTUS43 KGRB 201700
TAFRHI
TAF
KRHI 201728Z 2018/2118 30005KT P6SM OVC019
     FM202300 VRB03KT P6SM SCT035
     FM210300 VRB02KT 4SM BR SCT035 SCT100
     FM210900 12006KT 6SM BR BKN035 PROB30 2116/2118 -SHRA=

USA.gov is the U.S. government's official web portal to all federal, state and local government web resources and services.